Time;durP1;ratioP1;P1;durP2;ratioP2;P2;SDS_P1;SDS_P2;PMS_P1;PMS_P2;Temp;Humidity;BMP_temperature;BMP_pressure;BME280_temperature;BME280_humidity;BME280_pressure;Samples;Min_cycle;Max_cycle;Signal;HPM_P1;HPM_P2
2022/09/09 00:01:45;;;;;;;;;;;;;;;;;;4987473;28;19910;-88
2022/09/09 00:04:12;;;;;;;;;;;;;;;;;;4965674;28;19918;-87
2022/09/09 00:06:38;;;;;;;;;;;;;;;;;;4982412;28;19928;-87
2022/09/09 00:09:03;;;;;;;;;;;;;;;;;;4987349;28;19926;-89
2022/09/09 00:11:31;;;;;;;;;;;;;;;;;;4982742;28;19914;-88
2022/09/09 00:13:57;;;;;;;;;;;;;;;;;;4983299;28;19925;-88
2022/09/09 00:16:23;;;;;;;;;;;;;;;;;;4983862;28;19914;-91
2022/09/09 00:18:50;;;;;;;;;;;;;;;;;;4983582;28;19922;-87
2022/09/09 00:21:19;;;;;;;;;;;;;;;;;;4988141;28;19961;-86
2022/09/09 00:23:44;;;;;;;;;;;;;;;;;;4991075;28;19944;-85
2022/09/09 00:26:09;;;;;;;;;;;;;;;;;;4971616;28;20375;-88
2022/09/09 00:28:35;;;;;;;;;;;;;;;;;;4974289;28;20016;-89
2022/09/09 00:31:01;;;;;;;;;;;;;;;;;;5002339;28;19956;-87
2022/09/09 00:33:26;;;;;;;;;;;;;;;;;;4981847;28;19914;-85
2022/09/09 00:35:52;;;;;;;;;;;;;;;;;;4992480;28;19932;-88
2022/09/09 00:38:17;;;;;;;;;;;;;;;;;;5005669;28;19925;-86
2022/09/09 00:40:46;;;;;;;;;;;;;;;;;;4983296;28;19910;-87
2022/09/09 00:43:13;;;;;;;;;;;;;;;;;;4986394;28;19926;-89
2022/09/09 00:45:38;;;;;;;;;;;;;;;;;;4986995;28;19925;-87
2022/09/09 00:50:43;;;;;;;;;;;;;;;;;;4268426;26;19961;-60
2022/09/09 00:53:12;;;;;;;;;;;;;;;;;;4948878;28;19934;-59
2022/09/09 00:55:43;;;;;;;;;;;;;;;;;;4961279;28;19924;-59
2022/09/09 00:58:08;;;;;;;;;;;;;;;;;;4967487;28;19917;-59
2022/09/09 01:00:36;;;;;;;;;;;;;;;;;;4977678;28;20062;-60
2022/09/09 01:03:02;;;;;;;;;;;;;;;;;;4970339;28;20546;-59
2022/09/09 01:05:27;;;;;;;;;;;;;;;;;;4969142;28;20081;-59
2022/09/09 01:07:54;;;;;;;;;;;;;;;;;;4981326;28;20439;-59
2022/09/09 01:10:22;;;;;;;;;;;;;;;;;;4968294;28;19921;-59
2022/09/09 01:12:47;;;;;;;;;;;;;;;;;;4977160;28;19976;-58
2022/09/09 01:15:12;;;;;;;;;;;;;;;;;;4978350;28;19926;-60
2022/09/09 01:17:41;;;;;;;;;;;;;;;;;;4962376;28;19968;-58
2022/09/09 01:20:08;;;;;;;;;;;;;;;;;;4967983;28;20037;-59
2022/09/09 01:22:36;;;;;;;;;;;;;;;;;;4967590;28;19921;-60
2022/09/09 01:25:01;;;;;;;;;;;;;;;;;;4981379;28;19968;-59
2022/09/09 01:27:26;;;;;;;;;;;;;;;;;;4978171;28;19925;-58
2022/09/09 01:29:52;;;;;;;;;;;;;;;;;;4967562;28;19953;-58
2022/09/09 01:32:17;;;;;;;;;;;;;;;;;;4962559;28;20009;-59
2022/09/09 01:34:47;;;;;;;;;;;;;;;;;;4970128;28;19972;-59
2022/09/09 01:37:12;;;;;;;;;;;;;;;;;;4971696;28;19926;-60
2022/09/09 01:39:40;;;;;;;;;;;;;;;;;;4972909;28;21797;-58
2022/09/09 01:42:07;;;;;;;;;;;;;;;;;;4972379;28;19933;-59
2022/09/09 01:44:33;;;;;;;;;;;;;;;;;;4971448;28;19940;-59
2022/09/09 01:46:58;;;;;;;;;;;;;;;;;;4972247;28;19925;-59
2022/09/09 01:49:23;;;;;;;;;;;;;;;;;;4985288;28;19942;-59
2022/09/09 01:51:48;;;;;;;;;;;;;;;;;;4981078;28;20578;-58
2022/09/09 01:54:14;;;;;;;;;;;;;;;;;;4988052;28;20028;-58
2022/09/09 01:56:39;;;;;;;;;;;;;;;;;;4973509;28;19917;-58
2022/09/09 01:59:04;;;;;;;;;;;;;;;;;;4992273;28;20003;-59
2022/09/09 02:01:29;;;;;;;;;;;;;;;;;;4990737;28;19955;-59
2022/09/09 02:03:55;;;;;;;;;;;;;;;;;;4990650;28;20008;-59
2022/09/09 02:06:20;;;;;;;;;;;;;;;;;;4991269;28;20016;-58
2022/09/09 02:08:45;;;;;;;;;;;;;;;;;;4990607;28;19917;-58
2022/09/09 02:11:10;;;;;;;;;;;;;;;;;;4979941;28;19921;-60
2022/09/09 02:13:39;;;;;;;;;;;;;;;;;;4987630;28;19922;-58
2022/09/09 02:16:05;;;;;;;;;;;;;;;;;;4975343;28;20043;-58
2022/09/09 02:18:30;;;;;;;;;;;;;;;;;;4989363;28;19921;-62
2022/09/09 02:20:58;;;;;;;;;;;;;;;;;;4967708;28;19986;-58
2022/09/09 02:23:26;;;;;;;;;;;;;;;;;;4989701;28;19921;-58
2022/09/09 02:25:51;;;;;;;;;;;;;;;;;;4990366;28;19932;-57
2022/09/09 02:28:16;;;;;;;;;;;;;;;;;;4991158;28;19918;-58
2022/09/09 02:30:44;;;;;;;;;;;;;;;;;;4989779;28;19921;-58
2022/09/09 02:33:12;;;;;;;;;;;;;;;;;;4974776;28;20106;-57
2022/09/09 02:35:40;;;;;;;;;;;;;;;;;;4975952;28;20620;-59
2022/09/09 02:38:08;;;;;;;;;;;;;;;;;;4990088;28;19918;-59
2022/09/09 02:40:34;;;;;;;;;;;;;;;;;;4991421;28;19921;-58
2022/09/09 02:42:59;;;;;;;;;;;;;;;;;;4972181;28;19965;-60
2022/09/09 02:45:25;;;;;;;;;;;;;;;;;;4978107;28;19956;-58
2022/09/09 02:47:50;;;;;;;;;;;;;;;;;;4987284;28;20508;-59
2022/09/09 02:50:15;;;;;;;;;;;;;;;;;;4989846;28;19936;-58
2022/09/09 02:52:40;;;;;;;;;;;;;;;;;;4989245;28;19921;-58
2022/09/09 02:55:06;;;;;;;;;;;;;;;;;;4988959;28;19960;-59
2022/09/09 02:57:31;;;;;;;;;;;;;;;;;;4975181;28;19922;-59
2022/09/09 02:59:56;;;;;;;;;;;;;;;;;;4990697;28;20289;-60
2022/09/09 03:02:21;;;;;;;;;;;;;;;;;;4953088;28;19925;-57
2022/09/09 03:04:50;;;;;;;;;;;;;;;;;;4975482;28;20425;-59
2022/09/09 03:07:16;;;;;;;;;;;;;;;;;;4989239;28;19921;-58
2022/09/09 03:09:42;;;;;;;;;;;;;;;;;;4990401;28;19956;-59
2022/09/09 03:12:10;;;;;;;;;;;;;;;;;;4970309;28;21853;-59
2022/09/09 03:14:39;;;;;;;;;;;;;;;;;;4990364;28;19929;-59
2022/09/09 03:17:04;;;;;;;;;;;;;;;;;;4990194;28;19948;-59
2022/09/09 03:19:29;;;;;;;;;;;;;;;;;;4990171;28;20376;-58
2022/09/09 03:21:55;;;;;;;;;;;;;;;;;;4972247;28;19928;-59
2022/09/09 03:24:21;;;;;;;;;;;;;;;;;;4990603;28;19922;-59
2022/09/09 03:26:50;;;;;;;;;;;;;;;;;;4989206;28;19921;-59
2022/09/09 03:29:18;;;;;;;;;;;;;;;;;;4950366;28;19921;-59
2022/09/09 03:31:43;;;;;;;;;;;;;;;;;;4989821;28;19961;-59
2022/09/09 03:34:13;;;;;;;;;;;;;;;;;;4975165;28;19917;-59
2022/09/09 03:36:43;;;;;;;;;;;;;;;;;;4989935;28;19918;-58
2022/09/09 03:39:11;;;;;;;;;;;;;;;;;;4990294;28;19976;-60
2022/09/09 03:41:37;;;;;;;;;;;;;;;;;;4988399;28;19940;-59
2022/09/09 03:44:07;;;;;;;;;;;;;;;;;;4989001;28;20817;-59
2022/09/09 03:46:33;;;;;;;;;;;;;;;;;;4988486;28;19944;-61
2022/09/09 03:48:58;;;;;;;;;;;;;;;;;;4989243;28;19917;-58
2022/09/09 03:51:24;;;;;;;;;;;;;;;;;;4988807;28;20050;-60
2022/09/09 03:53:51;;;;;;;;;;;;;;;;;;4986332;28;21625;-59
2022/09/09 03:56:21;;;;;;;;;;;;;;;;;;4973603;28;19996;-59
2022/09/09 03:58:46;;;;;;;;;;;;;;;;;;4977117;28;19922;-59
2022/09/09 04:01:14;;;;;;;;;;;;;;;;;;4989606;28;19929;-59
2022/09/09 04:03:42;;;;;;;;;;;;;;;;;;4973476;28;19928;-59
2022/09/09 04:06:07;;;;;;;;;;;;;;;;;;4989606;28;20888;-60
2022/09/09 04:08:37;;;;;;;;;;;;;;;;;;4972667;28;19919;-59
2022/09/09 04:11:05;;;;;;;;;;;;;;;;;;4988377;28;19921;-59
2022/09/09 04:13:30;;;;;;;;;;;;;;;;;;4975183;28;19975;-60
2022/09/09 04:15:55;;;;;;;;;;;;;;;;;;4971706;28;19953;-59
2022/09/09 04:18:20;;;;;;;;;;;;;;;;;;4973599;28;19964;-59
2022/09/09 04:20:46;;;;;;;;;;;;;;;;;;4987353;28;19963;-60
2022/09/09 04:23:11;;;;;;;;;;;;;;;;;;4987219;28;19918;-60
2022/09/09 04:25:37;;;;;;;;;;;;;;;;;;4973047;28;19968;-59
2022/09/09 04:28:03;;;;;;;;;;;;;;;;;;4987855;28;20381;-59
2022/09/09 04:30:31;;;;;;;;;;;;;;;;;;4966745;28;19918;-58
2022/09/09 04:32:59;;;;;;;;;;;;;;;;;;4971977;28;19936;-60
2022/09/09 04:35:26;;;;;;;;;;;;;;;;;;4989012;28;19924;-59
2022/09/09 04:37:52;;;;;;;;;;;;;;;;;;4988133;28;19928;-59
2022/09/09 04:40:22;;;;;;;;;;;;;;;;;;4970036;28;19928;-59
2022/09/09 04:42:52;;;;;;;;;;;;;;;;;;4990371;28;19918;-60
2022/09/09 04:45:18;;;;;;;;;;;;;;;;;;4988345;28;20007;-60
2022/09/09 04:47:46;;;;;;;;;;;;;;;;;;4987089;28;19921;-58
2022/09/09 04:50:13;;;;;;;;;;;;;;;;;;4981166;28;19968;-59
2022/09/09 04:52:39;;;;;;;;;;;;;;;;;;4971296;28;19925;-60
2022/09/09 04:55:04;;;;;;;;;;;;;;;;;;4988872;28;19918;-59
2022/09/09 04:57:32;;;;;;;;;;;;;;;;;;4974745;28;21813;-60
2022/09/09 04:59:58;;;;;;;;;;;;;;;;;;4986990;28;19921;-58
2022/09/09 05:02:23;;;;;;;;;;;;;;;;;;4974552;28;19928;-58
2022/09/09 05:04:51;;;;;;;;;;;;;;;;;;4988099;28;20531;-58
2022/09/09 05:07:16;;;;;;;;;;;;;;;;;;4972323;28;19933;-59
2022/09/09 05:09:42;;;;;;;;;;;;;;;;;;4975629;28;20661;-59
2022/09/09 05:12:10;;;;;;;;;;;;;;;;;;4968727;28;19975;-59
2022/09/09 05:17:52;;;;;;;;;;;;;;;;;;4988717;28;19975;-59
2022/09/09 05:20:18;;;;;;;;;;;;;;;;;;4975257;28;19925;-61
2022/09/09 05:22:49;;;;;;;;;;;;;;;;;;4988820;28;19921;-60
2022/09/09 05:25:19;;;;;;;;;;;;;;;;;;4988384;28;19918;-59
2022/09/09 05:27:44;;;;;;;;;;;;;;;;;;4966189;28;19975;-60
2022/09/09 05:30:11;;;;;;;;;;;;;;;;;;4951334;28;19925;-59
2022/09/09 05:32:40;;;;;;;;;;;;;;;;;;4952231;28;19917;-60
2022/09/09 05:35:05;;;;;;;;;;;;;;;;;;4987664;28;20419;-60
2022/09/09 05:37:30;;;;;;;;;;;;;;;;;;4986602;28;20371;-58
2022/09/09 05:39:55;;;;;;;;;;;;;;;;;;4988093;28;19952;-59
2022/09/09 05:42:23;;;;;;;;;;;;;;;;;;4985247;28;20542;-60
2022/09/09 05:44:54;;;;;;;;;;;;;;;;;;4987176;28;19967;-59
2022/09/09 05:47:21;;;;;;;;;;;;;;;;;;4970754;28;19922;-60
2022/09/09 05:49:49;;;;;;;;;;;;;;;;;;4971920;28;20015;-60
2022/09/09 05:52:14;;;;;;;;;;;;;;;;;;4987071;28;20004;-60
2022/09/09 05:54:45;;;;;;;;;;;;;;;;;;4969792;28;19921;-60
2022/09/09 05:57:16;;;;;;;;;;;;;;;;;;4950474;28;20282;-60
2022/09/09 05:59:41;;;;;;;;;;;;;;;;;;4986512;28;19917;-60
2022/09/09 06:02:12;;;;;;;;;;;;;;;;;;4987005;28;19929;-60
2022/09/09 06:04:38;;;;;;;;;;;;;;;;;;4971291;28;19922;-60
2022/09/09 06:07:03;;;;;;;;;;;;;;;;;;4985972;28;19932;-59
2022/09/09 06:09:30;;;;;;;;;;;;;;;;;;4986454;28;19918;-60
2022/09/09 06:11:55;;;;;;;;;;;;;;;;;;4986970;28;20579;-59
2022/09/09 06:14:21;;;;;;;;;;;;;;;;;;4985135;28;20043;-60
2022/09/09 06:16:46;;;;;;;;;;;;;;;;;;4987805;28;20946;-60
2022/09/09 06:19:12;;;;;;;;;;;;;;;;;;4989996;28;19921;-60
2022/09/09 06:21:37;;;;;;;;;;;;;;;;;;4989702;28;19929;-61
2022/09/09 06:24:07;;;;;;;;;;;;;;;;;;4955412;28;21768;-61
2022/09/09 06:26:32;;;;;;;;;;;;;;;;;;4974002;28;19929;-60
2022/09/09 06:29:00;;;;;;;;;;;;;;;;;;4967294;28;19921;-60
2022/09/09 06:31:25;;;;;;;;;;;;;;;;;;4974895;28;20811;-61
2022/09/09 06:33:56;;;;;;;;;;;;;;;;;;4991402;28;20436;-61
2022/09/09 06:36:21;;;;;;;;;;;;;;;;;;4966238;28;19967;-61
2022/09/09 06:38:46;;;;;;;;;;;;;;;;;;4991080;28;20012;-61
2022/09/09 06:41:12;;;;;;;;;;;;;;;;;;4974113;28;19922;-61
2022/09/09 06:43:39;;;;;;;;;;;;;;;;;;4974712;28;20024;-61
2022/09/09 06:46:05;;;;;;;;;;;;;;;;;;4991467;28;19928;-61
2022/09/09 06:48:30;;;;;;;;;;;;;;;;;;4987908;28;19917;-61
2022/09/09 06:50:56;;;;;;;;;;;;;;;;;;4975785;28;19922;-62
2022/09/09 06:53:23;;;;;;;;;;;;;;;;;;4976539;28;20399;-60
2022/09/09 06:55:49;;;;;;;;;;;;;;;;;;4953670;28;20076;-60
2022/09/09 06:58:18;;;;;;;;;;;;;;;;;;4992279;28;19943;-60
2022/09/09 07:00:46;;;;;;;;;;;;;;;;;;4972138;28;20005;-61
2022/09/09 07:03:14;;;;;;;;;;;;;;;;;;4991063;28;19932;-61
2022/09/09 07:05:39;;;;;;;;;;;;;;;;;;4974114;28;19917;-60
2022/09/09 07:08:05;;;;;;;;;;;;;;;;;;4974973;28;19925;-60
2022/09/09 07:10:31;;;;;;;;;;;;;;;;;;4976473;28;19940;-63
2022/09/09 07:12:56;;;;;;;;;;;;;;;;;;4950515;28;19925;-60
2022/09/09 07:15:22;;;;;;;;;;;;;;;;;;4988193;28;19925;-62
2022/09/09 07:17:50;;;;;;;;;;;;;;;;;;4989733;28;20015;-63
2022/09/09 07:20:15;;;;;;;;;;;;;;;;;;4974254;28;20026;-60
2022/09/09 07:22:43;;;;;;;;;;;;;;;;;;4972658;28;20743;-61
2022/09/09 07:25:08;;;;;;;;;;;;;;;;;;4967757;28;19921;-61
2022/09/09 07:27:33;;;;;;;;;;;;;;;;;;4988887;28;19988;-61
2022/09/09 07:29:59;;;;;;;;;;;;;;;;;;4970512;28;20004;-61
2022/09/09 07:32:25;;;;;;;;;;;;;;;;;;4976297;28;19975;-62
2022/09/09 07:34:50;;;;;;;;;;;;;;;;;;4976733;28;19917;-63
2022/09/09 07:37:18;;;;;;;;;;;;;;;;;;4988325;28;19928;-63
2022/09/09 07:39:46;;;;;;;;;;;;;;;;;;4974359;28;19918;-61
2022/09/09 07:42:14;;;;;;;;;;;;;;;;;;4988675;28;19918;-62
2022/09/09 07:44:40;;;;;;;;;;;;;;;;;;4988576;28;19999;-62
2022/09/09 07:47:05;;;;;;;;;;;;;;;;;;4989492;28;20012;-61
2022/09/09 07:49:31;;;;;;;;;;;;;;;;;;4971009;28;20007;-64
2022/09/09 07:51:57;;;;;;;;;;;;;;;;;;4963884;28;20040;-61
2022/09/09 07:54:23;;;;;;;;;;;;;;;;;;4972313;28;20917;-63
2022/09/09 07:56:59;;;;;;;;;;;;;;;;;;4972449;28;20036;-63
2022/09/09 07:59:29;;;;;;;;;;;;;;;;;;4988378;28;21098;-64
2022/09/09 08:01:55;;;;;;;;;;;;;;;;;;4989718;28;19917;-64
2022/09/09 08:04:20;;;;;;;;;;;;;;;;;;4988797;28;19917;-63
2022/09/09 08:06:46;;;;;;;;;;;;;;;;;;4966065;28;19955;-63
2022/09/09 08:09:11;;;;;;;;;;;;;;;;;;4976225;28;19976;-63
2022/09/09 08:11:37;;;;;;;;;;;;;;;;;;4988365;28;19925;-64
2022/09/09 08:14:02;;;;;;;;;;;;;;;;;;4989306;28;20008;-64
2022/09/09 08:16:30;;;;;;;;;;;;;;;;;;4986108;28;19924;-65
2022/09/09 08:18:55;;;;;;;;;;;;;;;;;;4987804;28;20815;-65
2022/09/09 08:21:21;;;;;;;;;;;;;;;;;;4989265;28;19917;-66
2022/09/09 08:23:47;;;;;;;;;;;;;;;;;;4987334;28;21987;-66
2022/09/09 08:26:12;;;;;;;;;;;;;;;;;;4988742;28;19921;-66
2022/09/09 08:28:37;;;;;;;;;;;;;;;;;;4972336;28;19928;-67
2022/09/09 08:31:03;;;;;;;;;;;;;;;;;;4986629;28;19921;-64
2022/09/09 08:33:28;;;;;;;;;;;;;;;;;;4971282;28;19932;-65
2022/09/09 08:35:53;;;;;;;;;;;;;;;;;;4982408;28;19992;-66
2022/09/09 08:38:21;;;;;;;;;;;;;;;;;;4987589;28;19943;-65
2022/09/09 08:40:49;;;;;;;;;;;;;;;;;;4982441;28;19928;-63
2022/09/09 08:43:17;;;;;;;;;;;;;;;;;;4972165;28;19921;-67
2022/09/09 08:45:42;;;;;;;;;;;;;;;;;;4971968;28;20032;-67
2022/09/09 08:48:07;;;;;;;;;;;;;;;;;;4972273;28;19928;-67
2022/09/09 08:50:35;;;;;;;;;;;;;;;;;;4973893;28;20071;-67
2022/09/09 08:53:02;;;;;;;;;;;;;;;;;;4988721;28;19925;-67
2022/09/09 08:56:01;;;;;;;;;;;;;;;;;;4988709;28;19922;-68
2022/09/09 08:58:23;;;;;;;;;;;;;;;;;;4971924;28;19921;-67
2022/09/09 09:00:48;;;;;;;;;;;;;;;;;;4988151;28;19928;-66
2022/09/09 09:03:14;;;;;;;;;;;;;;;;;;4986906;28;20977;-66
2022/09/09 09:05:39;;;;;;;;;;;;;;;;;;4989622;28;19928;-68
2022/09/09 09:08:06;;;;;;;;;;;;;;;;;;4987589;28;19921;-69
2022/09/09 09:10:36;;;;;;;;;;;;;;;;;;4987130;28;19921;-67
2022/09/09 09:13:04;;;;;;;;;;;;;;;;;;4987075;28;19921;-66
2022/09/09 09:15:32;;;;;;;;;;;;;;;;;;4987213;28;20041;-67
2022/09/09 09:17:57;;;;;;;;;;;;;;;;;;4988482;28;19922;-67
2022/09/09 09:20:22;;;;;;;;;;;;;;;;;;4971410;28;19922;-64
2022/09/09 09:22:47;;;;;;;;;;;;;;;;;;4987258;28;20024;-67
2022/09/09 09:25:13;;;;;;;;;;;;;;;;;;4965874;28;19922;-68
2022/09/09 09:27:38;;;;;;;;;;;;;;;;;;4988257;28;19925;-66
2022/09/09 09:30:06;;;;;;;;;;;;;;;;;;4970052;28;19952;-68
2022/09/09 09:32:31;;;;;;;;;;;;;;;;;;4964280;28;20047;-67
2022/09/09 09:34:57;;;;;;;;;;;;;;;;;;4987529;28;19928;-67
2022/09/09 09:37:23;;;;;;;;;;;;;;;;;;4971811;28;19917;-68
2022/09/09 09:39:49;;;;;;;;;;;;;;;;;;4988055;28;19917;-69
2022/09/09 09:42:14;;;;;;;;;;;;;;;;;;4963965;28;19928;-68
2022/09/09 09:44:39;;;;;;;;;;;;;;;;;;4986797;28;19922;-67
2022/09/09 09:47:05;;;;;;;;;;;;;;;;;;4974355;28;19925;-68
2022/09/09 09:49:32;;;;;;;;;;;;;;;;;;4988248;28;19918;-67
2022/09/09 09:51:57;;;;;;;;;;;;;;;;;;4956579;28;19922;-67
2022/09/09 09:54:27;;;;;;;;;;;;;;;;;;4955081;28;19925;-64
2022/09/09 09:56:52;;;;;;;;;;;;;;;;;;4974407;28;19925;-67
2022/09/09 09:59:17;;;;;;;;;;;;;;;;;;4968842;28;21858;-69
2022/09/09 10:01:43;;;;;;;;;;;;;;;;;;4969133;28;21645;-67
2022/09/09 10:04:10;;;;;;;;;;;;;;;;;;4955317;28;19921;-69
2022/09/09 10:06:37;;;;;;;;;;;;;;;;;;4990340;28;19984;-65
2022/09/09 10:09:02;;;;;;;;;;;;;;;;;;4974751;28;19957;-65
2022/09/09 10:11:28;;;;;;;;;;;;;;;;;;4990738;28;20284;-68
2022/09/09 10:13:57;;;;;;;;;;;;;;;;;;4973508;28;19917;-66
2022/09/09 10:16:26;;;;;;;;;;;;;;;;;;4968366;28;20077;-66
2022/09/09 10:18:51;;;;;;;;;;;;;;;;;;4974353;28;20344;-68
2022/09/09 10:21:17;;;;;;;;;;;;;;;;;;4991814;28;19921;-68
2022/09/09 10:23:43;;;;;;;;;;;;;;;;;;4989937;28;19922;-67
2022/09/09 10:26:09;;;;;;;;;;;;;;;;;;4990855;28;19968;-68
2022/09/09 10:28:34;;;;;;;;;;;;;;;;;;4973422;28;19952;-67
2022/09/09 10:31:00;;;;;;;;;;;;;;;;;;4974161;28;20335;-68
2022/09/09 10:33:27;;;;;;;;;;;;;;;;;;4991668;28;19922;-69
2022/09/09 10:35:52;;;;;;;;;;;;;;;;;;4970400;28;20051;-68
2022/09/09 10:38:18;;;;;;;;;;;;;;;;;;4990717;28;20156;-69
2022/09/09 10:40:44;;;;;;;;;;;;;;;;;;4991082;28;19921;-68
2022/09/09 10:43:09;;;;;;;;;;;;;;;;;;4990002;28;19918;-68
2022/09/09 10:45:35;;;;;;;;;;;;;;;;;;4990542;28;19921;-63
2022/09/09 10:48:02;;;;;;;;;;;;;;;;;;4990822;28;19932;-65
2022/09/09 10:50:31;;;;;;;;;;;;;;;;;;4966941;28;19921;-66
2022/09/09 10:52:56;;;;;;;;;;;;;;;;;;4973484;28;19975;-67
2022/09/09 10:55:28;;;;;;;;;;;;;;;;;;4977622;28;19917;-66
2022/09/09 10:57:53;;;;;;;;;;;;;;;;;;4990955;28;20009;-67
2022/09/09 11:00:19;;;;;;;;;;;;;;;;;;4973869;28;19928;-62
2022/09/09 11:02:47;;;;;;;;;;;;;;;;;;4967261;28;19928;-65
2022/09/09 11:05:18;;;;;;;;;;;;;;;;;;4982120;28;19922;-64
2022/09/09 11:07:43;;;;;;;;;;;;;;;;;;4988045;28;20617;-63
2022/09/09 11:10:08;;;;;;;;;;;;;;;;;;4974842;28;19925;-65
2022/09/09 11:12:34;;;;;;;;;;;;;;;;;;4987588;28;19924;-67
2022/09/09 11:15:01;;;;;;;;;;;;;;;;;;4953375;28;19993;-64
2022/09/09 11:17:27;;;;;;;;;;;;;;;;;;4989502;28;19971;-64
2022/09/09 11:19:52;;;;;;;;;;;;;;;;;;4989023;28;19968;-66
2022/09/09 11:22:17;;;;;;;;;;;;;;;;;;4973570;28;19921;-64
2022/09/09 11:24:43;;;;;;;;;;;;;;;;;;4973972;28;19949;-66
2022/09/09 11:27:12;;;;;;;;;;;;;;;;;;4989791;28;19929;-65
2022/09/09 11:29:37;;;;;;;;;;;;;;;;;;4988401;28;19922;-65
2022/09/09 11:32:05;;;;;;;;;;;;;;;;;;4989426;28;19929;-68
2022/09/09 11:34:33;;;;;;;;;;;;;;;;;;4972849;28;19914;-62
2022/09/09 11:37:01;;;;;;;;;;;;;;;;;;4973503;28;19921;-65
2022/09/09 11:39:26;;;;;;;;;;;;;;;;;;4982355;28;19930;-63
2022/09/09 11:41:51;;;;;;;;;;;;;;;;;;4986869;28;19989;-67
2022/09/09 11:44:20;;;;;;;;;;;;;;;;;;4989023;28;20815;-65
2022/09/09 11:46:45;;;;;;;;;;;;;;;;;;4988682;28;20010;-67
2022/09/09 11:49:10;;;;;;;;;;;;;;;;;;4988407;28;19932;-64
2022/09/09 11:51:36;;;;;;;;;;;;;;;;;;4988057;28;19918;-64
2022/09/09 11:54:02;;;;;;;;;;;;;;;;;;4975605;28;19975;-65
2022/09/09 11:56:49;;;;;;;;;;;;;;;;;;;;;
2022/09/09 11:59:52;;;;;;;;;;;;;;;;;;4974958;28;19972;-64
2022/09/09 12:02:18;;;;;;;;;;;;;;;;;;4973123;28;20080;-66
2022/09/09 12:04:48;;;;;;;;;;;;;;;;;;4987581;28;19941;-64
2022/09/09 12:07:16;;;;;;;;;;;;;;;;;;4971653;28;19922;-64
2022/09/09 12:09:42;;;;;;;;;;;;;;;;;;4987435;28;19963;-61
2022/09/09 12:12:07;;;;;;;;;;;;;;;;;;4984390;28;20016;-65
2022/09/09 12:14:32;;;;;;;;;;;;;;;;;;4987242;28;20352;-62
2022/09/09 12:17:01;;;;;;;;;;;;;;;;;;4987442;28;19918;-63
2022/09/09 12:19:26;;;;;;;;;;;;;;;;;;4952102;28;19975;-64
2022/09/09 12:21:54;;;;;;;;;;;;;;;;;;4970309;28;19996;-68
2022/09/09 12:24:20;;;;;;;;;;;;;;;;;;4988917;28;19917;-66
2022/09/09 12:26:45;;;;;;;;;;;;;;;;;;4987014;28;19971;-66
2022/09/09 12:29:11;;;;;;;;;;;;;;;;;;4987424;28;19918;-65
2022/09/09 12:31:37;;;;;;;;;;;;;;;;;;4970226;28;20305;-63
2022/09/09 12:34:02;;;;;;;;;;;;;;;;;;4964258;28;19921;-63
2022/09/09 12:36:30;;;;;;;;;;;;;;;;;;4987659;28;19921;-67
2022/09/09 12:38:56;;;;;;;;;;;;;;;;;;4986218;28;20004;-67
2022/09/09 12:41:22;;;;;;;;;;;;;;;;;;4972349;28;20020;-62
2022/09/09 12:43:50;;;;;;;;;;;;;;;;;;4986951;28;19957;-68
2022/09/09 12:46:18;;;;;;;;;;;;;;;;;;4973528;28;21741;-68
2022/09/09 12:48:44;;;;;;;;;;;;;;;;;;4988962;28;20304;-61
2022/09/09 12:51:10;;;;;;;;;;;;;;;;;;4988777;28;19918;-65
2022/09/09 12:53:35;;;;;;;;;;;;;;;;;;4986806;28;19926;-66
2022/09/09 12:56:02;;;;;;;;;;;;;;;;;;4985175;28;20674;-66
2022/09/09 12:58:32;;;;;;;;;;;;;;;;;;4968356;28;19921;-64
2022/09/09 13:01:00;;;;;;;;;;;;;;;;;;4985085;28;19964;-68
2022/09/09 13:03:25;;;;;;;;;;;;;;;;;;4985637;28;19987;-60
2022/09/09 13:05:58;;;;;;;;;;;;;;;;;;4974116;28;19921;-64
2022/09/09 13:08:24;;;;;;;;;;;;;;;;;;4964204;28;19921;-67
2022/09/09 13:10:53;;;;;;;;;;;;;;;;;;4986896;28;20019;-62
2022/09/09 13:13:22;;;;;;;;;;;;;;;;;;4986705;28;19921;-65
2022/09/09 13:15:48;;;;;;;;;;;;;;;;;;4989102;28;20366;-64
2022/09/09 13:18:14;;;;;;;;;;;;;;;;;;4985299;28;20016;-68
2022/09/09 13:20:39;;;;;;;;;;;;;;;;;;4987136;28;20403;-67
2022/09/09 13:23:07;;;;;;;;;;;;;;;;;;4967764;28;19932;-67
2022/09/09 13:25:35;;;;;;;;;;;;;;;;;;4970335;28;20612;-68
2022/09/09 13:28:02;;;;;;;;;;;;;;;;;;4972413;28;19917;-67
2022/09/09 13:30:27;;;;;;;;;;;;;;;;;;4951741;28;19928;-63
2022/09/09 13:32:52;;;;;;;;;;;;;;;;;;4984687;28;19918;-66
2022/09/09 13:35:18;;;;;;;;;;;;;;;;;;4974167;28;19921;-64
2022/09/09 13:37:43;;;;;;;;;;;;;;;;;;4991665;28;19954;-70
2022/09/09 13:40:08;;;;;;;;;;;;;;;;;;4978695;28;20827;-66
2022/09/09 13:42:35;;;;;;;;;;;;;;;;;;4989605;28;19948;-62
2022/09/09 13:45:00;;;;;;;;;;;;;;;;;;4989711;28;19922;-66
2022/09/09 13:47:25;;;;;;;;;;;;;;;;;;4990820;28;20349;-66
2022/09/09 13:49:50;;;;;;;;;;;;;;;;;;4989315;28;19928;-64
2022/09/09 13:52:18;;;;;;;;;;;;;;;;;;4989788;28;19924;-68
2022/09/09 13:54:44;;;;;;;;;;;;;;;;;;4990645;28;20016;-65
2022/09/09 13:57:09;;;;;;;;;;;;;;;;;;4990844;28;19995;-61
2022/09/09 13:59:34;;;;;;;;;;;;;;;;;;4991033;28;19918;-65
2022/09/09 14:02:02;;;;;;;;;;;;;;;;;;4968092;28;19921;-64
2022/09/09 14:04:27;;;;;;;;;;;;;;;;;;4992522;28;19922;-63
2022/09/09 14:06:55;;;;;;;;;;;;;;;;;;4973462;28;21033;-63
2022/09/09 14:09:23;;;;;;;;;;;;;;;;;;4992429;28;19918;-64
2022/09/09 14:11:48;;;;;;;;;;;;;;;;;;4991499;28;19976;-64
2022/09/09 14:14:14;;;;;;;;;;;;;;;;;;4989283;28;20864;-65
2022/09/09 14:16:41;;;;;;;;;;;;;;;;;;4990263;28;19922;-63
2022/09/09 14:19:06;;;;;;;;;;;;;;;;;;4988532;28;19953;-66
2022/09/09 14:21:32;;;;;;;;;;;;;;;;;;4988628;28;20288;-64
2022/09/09 14:23:57;;;;;;;;;;;;;;;;;;4990477;28;19996;-62
2022/09/09 14:26:26;;;;;;;;;;;;;;;;;;4989147;28;19921;-64
2022/09/09 14:28:51;;;;;;;;;;;;;;;;;;4973316;28;19925;-62
2022/09/09 14:31:22;;;;;;;;;;;;;;;;;;4968725;28;19917;-66
2022/09/09 14:33:53;;;;;;;;;;;;;;;;;;4973377;28;20083;-66
2022/09/09 14:36:18;;;;;;;;;;;;;;;;;;4975980;28;19984;-62
2022/09/09 14:38:46;;;;;;;;;;;;;;;;;;4952478;28;19933;-63
2022/09/09 14:41:11;;;;;;;;;;;;;;;;;;4984963;28;20269;-63
2022/09/09 14:43:37;;;;;;;;;;;;;;;;;;4989408;28;19959;-63
2022/09/09 14:46:02;;;;;;;;;;;;;;;;;;4976829;28;21953;-64
2022/09/09 14:48:27;;;;;;;;;;;;;;;;;;4972371;28;19922;-64
2022/09/09 14:50:53;;;;;;;;;;;;;;;;;;4965152;28;19943;-65
2022/09/09 14:53:18;;;;;;;;;;;;;;;;;;4990375;28;19936;-63
2022/09/09 14:55:43;;;;;;;;;;;;;;;;;;4990640;28;19914;-62
2022/09/09 14:58:09;;;;;;;;;;;;;;;;;;4990062;28;19933;-64
2022/09/09 15:00:36;;;;;;;;;;;;;;;;;;4987883;28;20019;-64
2022/09/09 15:03:02;;;;;;;;;;;;;;;;;;4988824;28;20021;-64
2022/09/09 15:05:27;;;;;;;;;;;;;;;;;;4992129;28;19928;-64
2022/09/09 15:08:05;;;;;;;;;;;;;;;;;;4990912;28;19924;-65
2022/09/09 15:10:44;;;;;;;;;;;;;;;;;;4978896;28;19922;-65
2022/09/09 15:13:14;;;;;;;;;;;;;;;;;;4991705;28;20004;-61
2022/09/09 15:15:41;;;;;;;;;;;;;;;;;;4987942;28;19921;-64
2022/09/09 15:18:09;;;;;;;;;;;;;;;;;;4989605;28;19925;-65
2022/09/09 15:20:37;;;;;;;;;;;;;;;;;;4988250;28;20282;-66
2022/09/09 15:23:02;;;;;;;;;;;;;;;;;;4950788;28;19967;-64
2022/09/09 15:25:28;;;;;;;;;;;;;;;;;;4957182;28;22001;-62
2022/09/09 15:27:53;;;;;;;;;;;;;;;;;;4989478;28;19953;-64
2022/09/09 15:30:18;;;;;;;;;;;;;;;;;;4989329;28;19921;-65
2022/09/09 15:32:44;;;;;;;;;;;;;;;;;;4991278;28;20369;-66
2022/09/09 15:35:09;;;;;;;;;;;;;;;;;;4990143;28;20028;-65
2022/09/09 15:37:34;;;;;;;;;;;;;;;;;;4987167;28;20020;-63
2022/09/09 15:40:00;;;;;;;;;;;;;;;;;;4989020;28;19918;-66
2022/09/09 15:42:25;;;;;;;;;;;;;;;;;;4975327;28;19918;-67
2022/09/09 15:44:51;;;;;;;;;;;;;;;;;;4986363;28;20775;-67
2022/09/09 15:47:17;;;;;;;;;;;;;;;;;;4952424;28;19921;-68
2022/09/09 15:49:42;;;;;;;;;;;;;;;;;;4988484;28;19925;-67
2022/09/09 15:52:07;;;;;;;;;;;;;;;;;;4964745;28;19961;-67
2022/09/09 15:54:33;;;;;;;;;;;;;;;;;;4989156;28;20726;-67
2022/09/09 15:56:58;;;;;;;;;;;;;;;;;;4972608;28;20024;-66
2022/09/09 15:59:23;;;;;;;;;;;;;;;;;;4972280;28;20423;-64
2022/09/09 16:01:51;;;;;;;;;;;;;;;;;;4988870;28;19918;-62
2022/09/09 16:04:22;;;;;;;;;;;;;;;;;;4987519;28;19928;-66
2022/09/09 16:06:50;;;;;;;;;;;;;;;;;;4988086;28;21958;-67
2022/09/09 16:09:19;;;;;;;;;;;;;;;;;;4989057;28;20410;-66
2022/09/09 16:11:44;;;;;;;;;;;;;;;;;;4989651;28;19925;-65
2022/09/09 16:14:10;;;;;;;;;;;;;;;;;;4989401;28;19972;-65
2022/09/09 16:16:36;;;;;;;;;;;;;;;;;;4974725;28;19929;-65
2022/09/09 16:19:01;;;;;;;;;;;;;;;;;;4972727;28;19918;-65
2022/09/09 16:21:29;;;;;;;;;;;;;;;;;;4963014;28;20568;-66
2022/09/09 16:23:55;;;;;;;;;;;;;;;;;;4975661;28;19921;-65
2022/09/09 16:26:20;;;;;;;;;;;;;;;;;;4973557;28;19918;-64
2022/09/09 16:28:46;;;;;;;;;;;;;;;;;;4971463;28;19921;-65
2022/09/09 16:31:11;;;;;;;;;;;;;;;;;;4971917;28;20301;-65
2022/09/09 16:33:42;;;;;;;;;;;;;;;;;;4986196;28;19963;-60
2022/09/09 16:36:07;;;;;;;;;;;;;;;;;;4989396;28;21538;-63
2022/09/09 16:38:35;;;;;;;;;;;;;;;;;;4987847;28;19921;-63
2022/09/09 16:41:00;;;;;;;;;;;;;;;;;;4952027;28;19921;-63
2022/09/09 16:43:26;;;;;;;;;;;;;;;;;;4987336;28;20028;-63
2022/09/09 16:45:51;;;;;;;;;;;;;;;;;;4971935;28;19917;-64
2022/09/09 16:48:19;;;;;;;;;;;;;;;;;;4988301;28;19933;-64